sensor_id;sensor_type;location;lat;lon;timestamp;pressure;altitude;pressure_sealevel;temperature
56286;BMP180;42191;47.562;9.686;2022-08-21T00:01:45;97050.00;;;21.00
56286;BMP180;42191;47.562;9.686;2022-08-21T00:04:13;97050.00;;;21.00
56286;BMP180;42191;47.562;9.686;2022-08-21T00:06:39;97045.00;;;20.90
56286;BMP180;42191;47.562;9.686;2022-08-21T00:09:07;97042.00;;;20.90
56286;BMP180;42191;47.562;9.686;2022-08-21T00:11:35;97043.00;;;20.90
56286;BMP180;42191;47.562;9.686;2022-08-21T00:14:04;97042.00;;;20.90
56286;BMP180;42191;47.562;9.686;2022-08-21T00:16:30;97040.00;;;20.90
56286;BMP180;42191;47.562;9.686;2022-08-21T00:18:56;97042.00;;;20.90
56286;BMP180;42191;47.562;9.686;2022-08-21T00:21:22;97034.00;;;21.00
56286;BMP180;42191;47.562;9.686;2022-08-21T00:23:48;97039.00;;;21.00
56286;BMP180;42191;47.562;9.686;2022-08-21T00:26:15;97036.00;;;21.00
56286;BMP180;42191;47.562;9.686;2022-08-21T00:28:41;97035.00;;;21.00
56286;BMP180;42191;47.562;9.686;2022-08-21T00:31:07;97037.00;;;21.10
56286;BMP180;42191;47.562;9.686;2022-08-21T00:33:33;97028.00;;;21.10
56286;BMP180;42191;47.562;9.686;2022-08-21T00:35:59;97033.00;;;21.10
56286;BMP180;42191;47.562;9.686;2022-08-21T00:38:26;97031.00;;;21.10
56286;BMP180;42191;47.562;9.686;2022-08-21T00:40:56;97029.00;;;21.10
56286;BMP180;42191;47.562;9.686;2022-08-21T00:43:26;97023.00;;;21.10
56286;BMP180;42191;47.562;9.686;2022-08-21T00:45:54;97028.00;;;21.10
56286;BMP180;42191;47.562;9.686;2022-08-21T00:48:21;97037.00;;;21.10
56286;BMP180;42191;47.562;9.686;2022-08-21T00:51:05;97030.00;;;21.10
56286;BMP180;42191;47.562;9.686;2022-08-21T00:53:34;97026.00;;;21.00
56286;BMP180;42191;47.562;9.686;2022-08-21T00:56:02;97033.00;;;21.00
56286;BMP180;42191;47.562;9.686;2022-08-21T00:58:29;97025.00;;;21.00
56286;BMP180;42191;47.562;9.686;2022-08-21T01:00:57;97024.00;;;21.00
56286;BMP180;42191;47.562;9.686;2022-08-21T01:03:25;97032.00;;;21.00
56286;BMP180;42191;47.562;9.686;2022-08-21T01:05:52;97031.00;;;21.00
56286;BMP180;42191;47.562;9.686;2022-08-21T01:08:19;97037.00;;;20.90
56286;BMP180;42191;47.562;9.686;2022-08-21T01:10:46;97025.00;;;20.90
56286;BMP180;42191;47.562;9.686;2022-08-21T01:13:15;97029.00;;;20.90
56286;BMP180;42191;47.562;9.686;2022-08-21T01:15:44;97026.00;;;20.90
56286;BMP180;42191;47.562;9.686;2022-08-21T01:18:12;97027.00;;;20.90
56286;BMP180;42191;47.562;9.686;2022-08-21T01:20:42;97027.00;;;20.90
56286;BMP180;42191;47.562;9.686;2022-08-21T01:23:08;97023.00;;;20.90
56286;BMP180;42191;47.562;9.686;2022-08-21T01:25:35;97018.00;;;20.90
56286;BMP180;42191;47.562;9.686;2022-08-21T01:28:12;97021.00;;;20.90
56286;BMP180;42191;47.562;9.686;2022-08-21T01:30:40;97016.00;;;20.80
56286;BMP180;42191;47.562;9.686;2022-08-21T01:33:07;97012.00;;;20.80
56286;BMP180;42191;47.562;9.686;2022-08-21T01:35:34;97011.00;;;20.80
56286;BMP180;42191;47.562;9.686;2022-08-21T01:38:00;97011.00;;;20.80
56286;BMP180;42191;47.562;9.686;2022-08-21T01:40:26;97011.00;;;20.80
56286;BMP180;42191;47.562;9.686;2022-08-21T01:42:52;97016.00;;;20.80
56286;BMP180;42191;47.562;9.686;2022-08-21T01:45:19;97003.00;;;20.80
56286;BMP180;42191;47.562;9.686;2022-08-21T01:47:45;97003.00;;;20.80
56286;BMP180;42191;47.562;9.686;2022-08-21T01:50:18;97005.00;;;20.80
56286;BMP180;42191;47.562;9.686;2022-08-21T01:52:44;97000.00;;;20.80
56286;BMP180;42191;47.562;9.686;2022-08-21T01:55:12;96998.00;;;20.80
56286;BMP180;42191;47.562;9.686;2022-08-21T01:57:38;97001.00;;;20.80
56286;BMP180;42191;47.562;9.686;2022-08-21T02:00:08;97005.00;;;20.80
56286;BMP180;42191;47.562;9.686;2022-08-21T02:02:36;97002.00;;;20.80
56286;BMP180;42191;47.562;9.686;2022-08-21T02:05:04;96992.00;;;20.80
56286;BMP180;42191;47.562;9.686;2022-08-21T02:07:39;96992.00;;;20.80
56286;BMP180;42191;47.562;9.686;2022-08-21T02:10:07;96987.00;;;20.70
56286;BMP180;42191;47.562;9.686;2022-08-21T02:12:34;96983.00;;;20.70
56286;BMP180;42191;47.562;9.686;2022-08-21T02:15:00;96979.00;;;20.70
56286;BMP180;42191;47.562;9.686;2022-08-21T02:17:26;96981.00;;;20.70
56286;BMP180;42191;47.562;9.686;2022-08-21T02:19:52;96979.00;;;20.70
56286;BMP180;42191;47.562;9.686;2022-08-21T02:22:18;96984.00;;;20.70
56286;BMP180;42191;47.562;9.686;2022-08-21T02:24:45;96976.00;;;20.70
56286;BMP180;42191;47.562;9.686;2022-08-21T02:27:11;96980.00;;;20.60
56286;BMP180;42191;47.562;9.686;2022-08-21T02:29:37;96973.00;;;20.60
56286;BMP180;42191;47.562;9.686;2022-08-21T02:32:03;96968.00;;;20.60
56286;BMP180;42191;47.562;9.686;2022-08-21T02:34:29;96978.00;;;20.60
56286;BMP180;42191;47.562;9.686;2022-08-21T02:36:55;96971.00;;;20.60
56286;BMP180;42191;47.562;9.686;2022-08-21T02:39:21;96972.00;;;20.60
56286;BMP180;42191;47.562;9.686;2022-08-21T02:41:47;96969.00;;;20.60
56286;BMP180;42191;47.562;9.686;2022-08-21T02:44:13;96962.00;;;20.60
56286;BMP180;42191;47.562;9.686;2022-08-21T02:46:40;96969.00;;;20.60
56286;BMP180;42191;47.562;9.686;2022-08-21T02:49:06;96963.00;;;20.70
56286;BMP180;42191;47.562;9.686;2022-08-21T02:51:32;96965.00;;;20.70
56286;BMP180;42191;47.562;9.686;2022-08-21T02:53:58;96973.00;;;20.70
56286;BMP180;42191;47.562;9.686;2022-08-21T02:56:24;96974.00;;;20.70
56286;BMP180;42191;47.562;9.686;2022-08-21T02:58:53;96970.00;;;20.70
56286;BMP180;42191;47.562;9.686;2022-08-21T03:01:19;96966.00;;;20.70
56286;BMP180;42191;47.562;9.686;2022-08-21T03:03:47;96967.00;;;20.70
56286;BMP180;42191;47.562;9.686;2022-08-21T03:06:16;96962.00;;;20.70
56286;BMP180;42191;47.562;9.686;2022-08-21T03:08:43;96961.00;;;20.70
56286;BMP180;42191;47.562;9.686;2022-08-21T03:11:11;96963.00;;;20.60
56286;BMP180;42191;47.562;9.686;2022-08-21T03:13:38;96967.00;;;20.60
56286;BMP180;42191;47.562;9.686;2022-08-21T03:16:05;96960.00;;;20.60
56286;BMP180;42191;47.562;9.686;2022-08-21T03:18:32;96963.00;;;20.60
56286;BMP180;42191;47.562;9.686;2022-08-21T03:20:58;96962.00;;;20.50
56286;BMP180;42191;47.562;9.686;2022-08-21T03:23:24;96963.00;;;20.50
56286;BMP180;42191;47.562;9.686;2022-08-21T03:25:50;96962.00;;;20.40
56286;BMP180;42191;47.562;9.686;2022-08-21T03:28:19;96960.00;;;20.40
56286;BMP180;42191;47.562;9.686;2022-08-21T03:30:48;96956.00;;;20.40
56286;BMP180;42191;47.562;9.686;2022-08-21T03:33:14;96951.00;;;20.30
56286;BMP180;42191;47.562;9.686;2022-08-21T03:35:45;96958.00;;;20.30
56286;BMP180;42191;47.562;9.686;2022-08-21T03:38:13;96953.00;;;20.30
56286;BMP180;42191;47.562;9.686;2022-08-21T03:40:39;96951.00;;;20.20
56286;BMP180;42191;47.562;9.686;2022-08-21T03:43:06;96957.00;;;20.20
56286;BMP180;42191;47.562;9.686;2022-08-21T03:45:34;96953.00;;;20.20
56286;BMP180;42191;47.562;9.686;2022-08-21T03:48:03;96959.00;;;20.20
56286;BMP180;42191;47.562;9.686;2022-08-21T03:50:33;96956.00;;;20.20
56286;BMP180;42191;47.562;9.686;2022-08-21T03:53:00;96959.00;;;20.20
56286;BMP180;42191;47.562;9.686;2022-08-21T03:55:27;96955.00;;;20.20
56286;BMP180;42191;47.562;9.686;2022-08-21T03:57:53;96951.00;;;20.20
56286;BMP180;42191;47.562;9.686;2022-08-21T04:00:20;96949.00;;;20.20
56286;BMP180;42191;47.562;9.686;2022-08-21T04:02:46;96954.00;;;20.20
56286;BMP180;42191;47.562;9.686;2022-08-21T04:05:14;96957.00;;;20.20
56286;BMP180;42191;47.562;9.686;2022-08-21T04:07:57;96955.00;;;20.10
56286;BMP180;42191;47.562;9.686;2022-08-21T04:10:24;96956.00;;;20.10
56286;BMP180;42191;47.562;9.686;2022-08-21T04:12:51;96967.00;;;20.10
56286;BMP180;42191;47.562;9.686;2022-08-21T04:15:18;96959.00;;;20.00
56286;BMP180;42191;47.562;9.686;2022-08-21T04:17:44;96961.00;;;20.00
56286;BMP180;42191;47.562;9.686;2022-08-21T04:20:10;96976.00;;;20.00
56286;BMP180;42191;47.562;9.686;2022-08-21T04:22:36;96966.00;;;19.90
56286;BMP180;42191;47.562;9.686;2022-08-21T04:25:02;96975.00;;;19.90
56286;BMP180;42191;47.562;9.686;2022-08-21T04:27:28;96973.00;;;19.90
56286;BMP180;42191;47.562;9.686;2022-08-21T04:29:54;96976.00;;;19.90
56286;BMP180;42191;47.562;9.686;2022-08-21T04:32:24;96973.00;;;19.90
56286;BMP180;42191;47.562;9.686;2022-08-21T04:34:58;96979.00;;;19.80
56286;BMP180;42191;47.562;9.686;2022-08-21T04:37:24;96983.00;;;19.80
56286;BMP180;42191;47.562;9.686;2022-08-21T04:39:50;96984.00;;;19.80
56286;BMP180;42191;47.562;9.686;2022-08-21T04:42:17;96986.00;;;19.80
56286;BMP180;42191;47.562;9.686;2022-08-21T04:44:43;96986.00;;;19.80
56286;BMP180;42191;47.562;9.686;2022-08-21T04:47:09;96984.00;;;19.80
56286;BMP180;42191;47.562;9.686;2022-08-21T04:49:35;96987.00;;;19.80
56286;BMP180;42191;47.562;9.686;2022-08-21T04:52:02;96991.00;;;19.80
56286;BMP180;42191;47.562;9.686;2022-08-21T04:54:28;96996.00;;;19.80
56286;BMP180;42191;47.562;9.686;2022-08-21T04:56:59;96998.00;;;19.80
56286;BMP180;42191;47.562;9.686;2022-08-21T04:59:31;97009.00;;;19.80
56286;BMP180;42191;47.562;9.686;2022-08-21T05:02:00;97014.00;;;19.80
56286;BMP180;42191;47.562;9.686;2022-08-21T05:04:30;97011.00;;;19.80
56286;BMP180;42191;47.562;9.686;2022-08-21T05:06:59;97018.00;;;19.80
56286;BMP180;42191;47.562;9.686;2022-08-21T05:09:27;97006.00;;;19.90
56286;BMP180;42191;47.562;9.686;2022-08-21T05:11:54;97003.00;;;19.90
56286;BMP180;42191;47.562;9.686;2022-08-21T05:14:21;97006.00;;;19.90
56286;BMP180;42191;47.562;9.686;2022-08-21T05:16:47;97012.00;;;20.00
56286;BMP180;42191;47.562;9.686;2022-08-21T05:19:13;97015.00;;;20.00
56286;BMP180;42191;47.562;9.686;2022-08-21T05:21:44;97016.00;;;20.10
56286;BMP180;42191;47.562;9.686;2022-08-21T05:24:11;97017.00;;;20.20
56286;BMP180;42191;47.562;9.686;2022-08-21T05:26:37;97019.00;;;20.30
56286;BMP180;42191;47.562;9.686;2022-08-21T05:29:05;97004.00;;;20.40
56286;BMP180;42191;47.562;9.686;2022-08-21T05:31:31;97012.00;;;20.40
56286;BMP180;42191;47.562;9.686;2022-08-21T05:33:57;97017.00;;;20.50
56286;BMP180;42191;47.562;9.686;2022-08-21T05:36:23;97013.00;;;20.60
56286;BMP180;42191;47.562;9.686;2022-08-21T05:38:49;97018.00;;;20.70
56286;BMP180;42191;47.562;9.686;2022-08-21T05:41:15;97010.00;;;20.70
56286;BMP180;42191;47.562;9.686;2022-08-21T05:43:41;97013.00;;;20.70
56286;BMP180;42191;47.562;9.686;2022-08-21T05:46:08;97004.00;;;20.80
56286;BMP180;42191;47.562;9.686;2022-08-21T05:48:35;97000.00;;;20.80
56286;BMP180;42191;47.562;9.686;2022-08-21T05:51:11;97012.00;;;20.80
56286;BMP180;42191;47.562;9.686;2022-08-21T05:53:38;97008.00;;;20.90
56286;BMP180;42191;47.562;9.686;2022-08-21T05:56:05;97013.00;;;20.90
56286;BMP180;42191;47.562;9.686;2022-08-21T05:58:33;97003.00;;;21.00
56286;BMP180;42191;47.562;9.686;2022-08-21T06:01:02;97013.00;;;21.00
56286;BMP180;42191;47.562;9.686;2022-08-21T06:03:32;96998.00;;;21.10
56286;BMP180;42191;47.562;9.686;2022-08-21T06:06:00;97007.00;;;21.10
56286;BMP180;42191;47.562;9.686;2022-08-21T06:08:26;97006.00;;;21.10
56286;BMP180;42191;47.562;9.686;2022-08-21T06:10:55;97004.00;;;21.20
56286;BMP180;42191;47.562;9.686;2022-08-21T06:13:22;96999.00;;;21.20
56286;BMP180;42191;47.562;9.686;2022-08-21T06:15:48;97002.00;;;21.20
56286;BMP180;42191;47.562;9.686;2022-08-21T06:18:15;97000.00;;;21.30
56286;BMP180;42191;47.562;9.686;2022-08-21T06:20:41;96999.00;;;21.30
56286;BMP180;42191;47.562;9.686;2022-08-21T06:23:08;96982.00;;;21.30
56286;BMP180;42191;47.562;9.686;2022-08-21T06:25:35;96986.00;;;21.40
56286;BMP180;42191;47.562;9.686;2022-08-21T06:28:04;96993.00;;;21.40
56286;BMP180;42191;47.562;9.686;2022-08-21T06:30:30;96991.00;;;21.50
56286;BMP180;42191;47.562;9.686;2022-08-21T06:32:56;96983.00;;;21.50
56286;BMP180;42191;47.562;9.686;2022-08-21T06:35:23;96990.00;;;21.60
56286;BMP180;42191;47.562;9.686;2022-08-21T06:37:50;96985.00;;;21.60
56286;BMP180;42191;47.562;9.686;2022-08-21T06:40:17;96978.00;;;21.60
56286;BMP180;42191;47.562;9.686;2022-08-21T06:42:43;96977.00;;;21.70
56286;BMP180;42191;47.562;9.686;2022-08-21T06:45:10;96984.00;;;21.70
56286;BMP180;42191;47.562;9.686;2022-08-21T06:47:36;96972.00;;;21.70
56286;BMP180;42191;47.562;9.686;2022-08-21T06:50:03;96960.00;;;21.80
56286;BMP180;42191;47.562;9.686;2022-08-21T06:52:29;96977.00;;;21.80
56286;BMP180;42191;47.562;9.686;2022-08-21T06:54:55;96975.00;;;21.80
56286;BMP180;42191;47.562;9.686;2022-08-21T06:57:21;96977.00;;;21.90
56286;BMP180;42191;47.562;9.686;2022-08-21T06:59:47;96977.00;;;21.90
56286;BMP180;42191;47.562;9.686;2022-08-21T07:02:13;96981.00;;;22.00
56286;BMP180;42191;47.562;9.686;2022-08-21T07:04:39;96969.00;;;22.10
56286;BMP180;42191;47.562;9.686;2022-08-21T07:07:06;96979.00;;;22.10
56286;BMP180;42191;47.562;9.686;2022-08-21T07:09:32;96974.00;;;22.20
56286;BMP180;42191;47.562;9.686;2022-08-21T07:11:58;96976.00;;;22.20
56286;BMP180;42191;47.562;9.686;2022-08-21T07:14:25;96976.00;;;22.30
56286;BMP180;42191;47.562;9.686;2022-08-21T07:16:51;96985.00;;;22.30
56286;BMP180;42191;47.562;9.686;2022-08-21T07:19:18;96982.00;;;22.30
56286;BMP180;42191;47.562;9.686;2022-08-21T07:21:44;96984.00;;;22.40
56286;BMP180;42191;47.562;9.686;2022-08-21T07:24:10;96978.00;;;22.40
56286;BMP180;42191;47.562;9.686;2022-08-21T07:26:37;96977.00;;;22.50
56286;BMP180;42191;47.562;9.686;2022-08-21T07:29:03;96989.00;;;22.50
56286;BMP180;42191;47.562;9.686;2022-08-21T07:31:30;96988.00;;;22.60
56286;BMP180;42191;47.562;9.686;2022-08-21T07:33:56;96986.00;;;22.60
56286;BMP180;42191;47.562;9.686;2022-08-21T07:36:23;96988.00;;;22.60
56286;BMP180;42191;47.562;9.686;2022-08-21T07:38:49;96986.00;;;22.60
56286;BMP180;42191;47.562;9.686;2022-08-21T07:41:21;96975.00;;;22.70
56286;BMP180;42191;47.562;9.686;2022-08-21T07:43:48;96984.00;;;22.70
56286;BMP180;42191;47.562;9.686;2022-08-21T07:46:15;96985.00;;;22.80
56286;BMP180;42191;47.562;9.686;2022-08-21T07:48:41;96976.00;;;22.90
56286;BMP180;42191;47.562;9.686;2022-08-21T07:51:11;96985.00;;;23.00
56286;BMP180;42191;47.562;9.686;2022-08-21T07:53:38;96975.00;;;23.00
56286;BMP180;42191;47.562;9.686;2022-08-21T07:56:06;96975.00;;;23.10
56286;BMP180;42191;47.562;9.686;2022-08-21T07:58:32;96980.00;;;23.20
56286;BMP180;42191;47.562;9.686;2022-08-21T08:00:58;96979.00;;;23.20
56286;BMP180;42191;47.562;9.686;2022-08-21T08:03:24;96980.00;;;23.30
56286;BMP180;42191;47.562;9.686;2022-08-21T08:05:51;96973.00;;;23.30
56286;BMP180;42191;47.562;9.686;2022-08-21T08:08:17;96971.00;;;23.40
56286;BMP180;42191;47.562;9.686;2022-08-21T08:10:43;96975.00;;;23.50
56286;BMP180;42191;47.562;9.686;2022-08-21T08:13:10;96973.00;;;23.50
56286;BMP180;42191;47.562;9.686;2022-08-21T08:15:36;96976.00;;;23.60
56286;BMP180;42191;47.562;9.686;2022-08-21T08:18:03;96967.00;;;23.60
56286;BMP180;42191;47.562;9.686;2022-08-21T08:20:29;96967.00;;;23.70
56286;BMP180;42191;47.562;9.686;2022-08-21T08:22:56;96968.00;;;23.70
56286;BMP180;42191;47.562;9.686;2022-08-21T08:25:23;96963.00;;;23.80
56286;BMP180;42191;47.562;9.686;2022-08-21T08:27:50;96964.00;;;23.80
56286;BMP180;42191;47.562;9.686;2022-08-21T08:30:18;96960.00;;;23.90
56286;BMP180;42191;47.562;9.686;2022-08-21T08:32:45;96959.00;;;23.90
56286;BMP180;42191;47.562;9.686;2022-08-21T08:35:12;96965.00;;;23.90
56286;BMP180;42191;47.562;9.686;2022-08-21T08:37:39;96954.00;;;24.00
56286;BMP180;42191;47.562;9.686;2022-08-21T08:40:14;96962.00;;;24.10
56286;BMP180;42191;47.562;9.686;2022-08-21T08:42:43;96950.00;;;24.10
56286;BMP180;42191;47.562;9.686;2022-08-21T08:45:13;96956.00;;;24.20
56286;BMP180;42191;47.562;9.686;2022-08-21T08:47:43;96960.00;;;24.20
56286;BMP180;42191;47.562;9.686;2022-08-21T08:50:27;96961.00;;;24.20
56286;BMP180;42191;47.562;9.686;2022-08-21T08:53:27;96955.00;;;24.20
56286;BMP180;42191;47.562;9.686;2022-08-21T08:55:54;96960.00;;;24.30
56286;BMP180;42191;47.562;9.686;2022-08-21T08:58:26;96950.00;;;24.30
56286;BMP180;42191;47.562;9.686;2022-08-21T09:00:54;96958.00;;;24.40
56286;BMP180;42191;47.562;9.686;2022-08-21T09:03:22;96949.00;;;24.40
56286;BMP180;42191;47.562;9.686;2022-08-21T09:11:14;96945.00;;;24.50
56286;BMP180;42191;47.562;9.686;2022-08-21T09:19:49;96930.00;;;24.50
56286;BMP180;42191;47.562;9.686;2022-08-21T09:22:38;96929.00;;;24.50
56286;BMP180;42191;47.562;9.686;2022-08-21T09:25:12;96934.00;;;24.50
56286;BMP180;42191;47.562;9.686;2022-08-21T09:27:40;96925.00;;;24.60
56286;BMP180;42191;47.562;9.686;2022-08-21T09:30:08;96926.00;;;24.60
56286;BMP180;42191;47.562;9.686;2022-08-21T09:32:37;96917.00;;;24.60
56286;BMP180;42191;47.562;9.686;2022-08-21T09:35:14;96926.00;;;24.70
56286;BMP180;42191;47.562;9.686;2022-08-21T09:37:54;96917.00;;;24.70
56286;BMP180;42191;47.562;9.686;2022-08-21T09:40:40;96924.00;;;24.80
56286;BMP180;42191;47.562;9.686;2022-08-21T09:43:17;96919.00;;;24.80
56286;BMP180;42191;47.562;9.686;2022-08-21T09:45:45;96918.00;;;24.80
56286;BMP180;42191;47.562;9.686;2022-08-21T09:48:23;96912.00;;;24.80
56286;BMP180;42191;47.562;9.686;2022-08-21T09:50:51;96922.00;;;24.90
56286;BMP180;42191;47.562;9.686;2022-08-21T09:55:55;96912.00;;;24.90
56286;BMP180;42191;47.562;9.686;2022-08-21T09:58:43;96911.00;;;25.00
56286;BMP180;42191;47.562;9.686;2022-08-21T10:01:20;96896.00;;;25.00
56286;BMP180;42191;47.562;9.686;2022-08-21T10:03:46;96896.00;;;25.10
56286;BMP180;42191;47.562;9.686;2022-08-21T10:06:25;96901.00;;;25.20
56286;BMP180;42191;47.562;9.686;2022-08-21T10:09:08;96902.00;;;25.20
56286;BMP180;42191;47.562;9.686;2022-08-21T10:11:35;96899.00;;;25.20
56286;BMP180;42191;47.562;9.686;2022-08-21T10:16:58;96890.00;;;25.40
56286;BMP180;42191;47.562;9.686;2022-08-21T10:19:36;96890.00;;;25.40
56286;BMP180;42191;47.562;9.686;2022-08-21T10:35:42;96870.00;;;25.70
56286;BMP180;42191;47.562;9.686;2022-08-21T10:47:04;96860.00;;;26.10
56286;BMP180;42191;47.562;9.686;2022-08-21T10:52:27;96868.00;;;26.20
56286;BMP180;42191;47.562;9.686;2022-08-21T10:57:54;96864.00;;;26.30
56286;BMP180;42191;47.562;9.686;2022-08-21T11:00:26;96864.00;;;26.40
56286;BMP180;42191;47.562;9.686;2022-08-21T11:05:31;96859.00;;;26.50
56286;BMP180;42191;47.562;9.686;2022-08-21T11:08:15;96859.00;;;26.60
56286;BMP180;42191;47.562;9.686;2022-08-21T11:10:48;96864.00;;;26.60
56286;BMP180;42191;47.562;9.686;2022-08-21T11:18:47;96860.00;;;26.80
56286;BMP180;42191;47.562;9.686;2022-08-21T11:27:12;96856.00;;;26.90
56286;BMP180;42191;47.562;9.686;2022-08-21T11:29:43;96849.00;;;26.90
56286;BMP180;42191;47.562;9.686;2022-08-21T11:37:21;96831.00;;;27.10
56286;BMP180;42191;47.562;9.686;2022-08-21T11:40:04;96833.00;;;27.20
56286;BMP180;42191;47.562;9.686;2022-08-21T11:45:49;96829.00;;;27.30
56286;BMP180;42191;47.562;9.686;2022-08-21T11:50:43;96821.00;;;27.40
56286;BMP180;42191;47.562;9.686;2022-08-21T11:53:15;96820.00;;;27.50
56286;BMP180;42191;47.562;9.686;2022-08-21T11:55:55;96814.00;;;27.50
56286;BMP180;42191;47.562;9.686;2022-08-21T11:58:38;96818.00;;;27.60
56286;BMP180;42191;47.562;9.686;2022-08-21T12:03:40;96814.00;;;27.60
56286;BMP180;42191;47.562;9.686;2022-08-21T12:06:13;96803.00;;;27.70
56286;BMP180;42191;47.562;9.686;2022-08-21T12:08:40;96803.00;;;27.70
56286;BMP180;42191;47.562;9.686;2022-08-21T12:11:24;96804.00;;;27.70
56286;BMP180;42191;47.562;9.686;2022-08-21T12:16:39;96792.00;;;27.80
56286;BMP180;42191;47.562;9.686;2022-08-21T12:19:29;96790.00;;;27.90
56286;BMP180;42191;47.562;9.686;2022-08-21T12:26:59;96791.00;;;28.10
56286;BMP180;42191;47.562;9.686;2022-08-21T12:29:33;96786.00;;;28.10
56286;BMP180;42191;47.562;9.686;2022-08-21T12:32:27;96782.00;;;28.20
56286;BMP180;42191;47.562;9.686;2022-08-21T12:37:43;96780.00;;;28.30
56286;BMP180;42191;47.562;9.686;2022-08-21T12:41:12;96778.00;;;28.30
56286;BMP180;42191;47.562;9.686;2022-08-21T12:43:23;96769.00;;;28.30
56286;BMP180;42191;47.562;9.686;2022-08-21T12:45:51;96769.00;;;28.40
56286;BMP180;42191;47.562;9.686;2022-08-21T12:49:26;96765.00;;;28.40
56286;BMP180;42191;47.562;9.686;2022-08-21T12:51:36;96763.00;;;28.50
56286;BMP180;42191;47.562;9.686;2022-08-21T12:54:06;96764.00;;;28.60
56286;BMP180;42191;47.562;9.686;2022-08-21T12:56:34;96758.00;;;28.60
56286;BMP180;42191;47.562;9.686;2022-08-21T12:59:07;96762.00;;;28.70
56286;BMP180;42191;47.562;9.686;2022-08-21T13:01:34;96761.00;;;28.70
56286;BMP180;42191;47.562;9.686;2022-08-21T13:04:07;96748.00;;;28.80
56286;BMP180;42191;47.562;9.686;2022-08-21T13:06:39;96757.00;;;28.90
56286;BMP180;42191;47.562;9.686;2022-08-21T13:09:10;96750.00;;;29.00
56286;BMP180;42191;47.562;9.686;2022-08-21T13:11:37;96759.00;;;29.10
56286;BMP180;42191;47.562;9.686;2022-08-21T13:14:05;96750.00;;;29.10
56286;BMP180;42191;47.562;9.686;2022-08-21T13:16:35;96751.00;;;29.20
56286;BMP180;42191;47.562;9.686;2022-08-21T13:19:04;96754.00;;;29.10
56286;BMP180;42191;47.562;9.686;2022-08-21T13:21:34;96751.00;;;29.20
56286;BMP180;42191;47.562;9.686;2022-08-21T13:24:16;96749.00;;;29.50
56286;BMP180;42191;47.562;9.686;2022-08-21T13:26:43;96750.00;;;30.00
56286;BMP180;42191;47.562;9.686;2022-08-21T13:29:11;96740.00;;;30.60
56286;BMP180;42191;47.562;9.686;2022-08-21T13:31:39;96749.00;;;31.20
56286;BMP180;42191;47.562;9.686;2022-08-21T13:34:09;96746.00;;;31.80
56286;BMP180;42191;47.562;9.686;2022-08-21T13:36:39;96736.00;;;32.50
56286;BMP180;42191;47.562;9.686;2022-08-21T13:39:11;96742.00;;;33.30
56286;BMP180;42191;47.562;9.686;2022-08-21T13:41:40;96739.00;;;34.00
56286;BMP180;42191;47.562;9.686;2022-08-21T13:46:45;96732.00;;;35.50
56286;BMP180;42191;47.562;9.686;2022-08-21T13:49:14;96740.00;;;36.10
56286;BMP180;42191;47.562;9.686;2022-08-21T13:51:41;96733.00;;;36.60
56286;BMP180;42191;47.562;9.686;2022-08-21T13:56:44;96745.00;;;37.50
56286;BMP180;42191;47.562;9.686;2022-08-21T13:59:11;96744.00;;;37.80
56286;BMP180;42191;47.562;9.686;2022-08-21T14:04:43;96745.00;;;38.40
56286;BMP180;42191;47.562;9.686;2022-08-21T14:07:26;96742.00;;;38.50
56286;BMP180;42191;47.562;9.686;2022-08-21T14:09:54;96746.00;;;38.70
56286;BMP180;42191;47.562;9.686;2022-08-21T14:12:30;96754.00;;;38.90
56286;BMP180;42191;47.562;9.686;2022-08-21T14:15:03;96740.00;;;39.00
56286;BMP180;42191;47.562;9.686;2022-08-21T14:17:39;96739.00;;;39.00
56286;BMP180;42191;47.562;9.686;2022-08-21T14:20:50;96744.00;;;39.10
56286;BMP180;42191;47.562;9.686;2022-08-21T14:22:57;96745.00;;;39.20
56286;BMP180;42191;47.562;9.686;2022-08-21T14:27:51;96753.00;;;39.20
56286;BMP180;42191;47.562;9.686;2022-08-21T14:30:29;96749.00;;;39.10
56286;BMP180;42191;47.562;9.686;2022-08-21T14:32:57;96754.00;;;39.00
56286;BMP180;42191;47.562;9.686;2022-08-21T14:35:24;96752.00;;;39.00
56286;BMP180;42191;47.562;9.686;2022-08-21T14:37:50;96750.00;;;39.00
56286;BMP180;42191;47.562;9.686;2022-08-21T14:40:18;96752.00;;;39.10
56286;BMP180;42191;47.562;9.686;2022-08-21T14:42:45;96760.00;;;39.30
56286;BMP180;42191;47.562;9.686;2022-08-21T14:45:23;96750.00;;;39.40
56286;BMP180;42191;47.562;9.686;2022-08-21T14:47:51;96751.00;;;39.50
56286;BMP180;42191;47.562;9.686;2022-08-21T14:50:18;96757.00;;;39.60
56286;BMP180;42191;47.562;9.686;2022-08-21T14:52:44;96749.00;;;39.60
56286;BMP180;42191;47.562;9.686;2022-08-21T14:55:14;96756.00;;;39.60
56286;BMP180;42191;47.562;9.686;2022-08-21T14:57:51;96749.00;;;39.60
56286;BMP180;42191;47.562;9.686;2022-08-21T15:00:20;96750.00;;;39.60
56286;BMP180;42191;47.562;9.686;2022-08-21T15:02:48;96752.00;;;39.60
56286;BMP180;42191;47.562;9.686;2022-08-21T15:05:15;96749.00;;;39.60
56286;BMP180;42191;47.562;9.686;2022-08-21T15:07:41;96757.00;;;39.60
56286;BMP180;42191;47.562;9.686;2022-08-21T15:10:08;96751.00;;;39.60
56286;BMP180;42191;47.562;9.686;2022-08-21T15:12:34;96741.00;;;39.60
56286;BMP180;42191;47.562;9.686;2022-08-21T15:15:01;96752.00;;;39.50
56286;BMP180;42191;47.562;9.686;2022-08-21T15:17:27;96755.00;;;39.50
56286;BMP180;42191;47.562;9.686;2022-08-21T15:19:53;96750.00;;;39.40
56286;BMP180;42191;47.562;9.686;2022-08-21T15:22:19;96747.00;;;39.30
56286;BMP180;42191;47.562;9.686;2022-08-21T15:24:45;96744.00;;;39.30
56286;BMP180;42191;47.562;9.686;2022-08-21T15:27:12;96744.00;;;39.30
56286;BMP180;42191;47.562;9.686;2022-08-21T15:29:40;96742.00;;;39.30
56286;BMP180;42191;47.562;9.686;2022-08-21T15:32:25;96747.00;;;39.30
56286;BMP180;42191;47.562;9.686;2022-08-21T15:34:53;96748.00;;;39.20
56286;BMP180;42191;47.562;9.686;2022-08-21T15:37:20;96752.00;;;39.30
56286;BMP180;42191;47.562;9.686;2022-08-21T15:39:46;96751.00;;;39.30
56286;BMP180;42191;47.562;9.686;2022-08-21T15:42:13;96747.00;;;39.40
56286;BMP180;42191;47.562;9.686;2022-08-21T15:44:40;96740.00;;;39.30
56286;BMP180;42191;47.562;9.686;2022-08-21T15:47:12;96736.00;;;39.10
56286;BMP180;42191;47.562;9.686;2022-08-21T15:49:40;96730.00;;;38.90
56286;BMP180;42191;47.562;9.686;2022-08-21T15:52:08;96728.00;;;38.80
56286;BMP180;42191;47.562;9.686;2022-08-21T15:54:34;96720.00;;;38.80